Aviation Digital Data Service (ADDS)

Output produced by METARs form (0136 UTC 19 October 2017)
found at http://aviationweather.gov/adds/metars/
 
KILM 182320Z 1900/1924 02007KT P6SM SCT035 SCT250